Time;durP1;ratioP1;P1;durP2;ratioP2;P2;SDS_P1;SDS_P2;PMS_P1;PMS_P2;Temp;Humidity;BMP_temperature;BMP_pressure;BME280_temperature;BME280_humidity;BME280_pressure;Samples;Min_cycle;Max_cycle;Signal;HPM_P1;HPM_P2
2023/06/27 00:01:19;;;;;;;;;;;;;;;16.97;67.20;101905.59;5005813;28;1652;-72
2023/06/27 00:03:45;;;;;;;;;;;;;;;16.95;67.09;101902.25;5002541;28;1328;-73
2023/06/27 00:06:10;;;;;;;;;;;;;;;16.93;67.39;101903.38;5006011;28;1137;-73
2023/06/27 00:08:35;;;;;;;;;;;;;;;16.94;66.82;101916.34;5007995;28;1343;-73
2023/06/27 00:11:00;;;;;;;;;;;;;;;16.94;67.04;101911.09;5004396;28;1886;-73
2023/06/27 00:13:26;;;;;;;;;;;;;;;16.92;67.12;101913.03;5008302;28;1070;-73
2023/06/27 00:15:53;;;;;;;;;;;;;;;16.92;67.08;101918.28;5005292;28;1321;-73
2023/06/27 00:18:21;;;;;;;;;;;;;;;16.92;67.27;101913.03;5005060;28;1311;-73
2023/06/27 00:20:48;;;;;;;;;;;;;;;16.92;66.97;101912.22;4998289;28;1854;-72
2023/06/27 00:23:24;;;;;;;;;;;;;;;16.92;67.27;101915.66;5007629;28;1304;-72
2023/06/27 00:25:49;;;;;;;;;;;;;;;16.90;67.12;101914.94;5002560;28;938;-73
2023/06/27 00:28:14;;;;;;;;;;;;;;;16.89;66.99;101915.91;5010048;28;1168;-73
2023/06/27 00:30:40;;;;;;;;;;;;;;;16.89;67.21;101918.53;5006033;28;1367;-72
2023/06/27 00:33:06;;;;;;;;;;;;;;;16.89;67.27;101909.84;5007745;28;1957;-72
2023/06/27 00:35:32;;;;;;;;;;;;;;;16.86;67.44;101908.34;5007777;28;1480;-72
2023/06/27 00:38:04;;;;;;;;;;;;;;;16.87;67.28;101904.75;5009302;28;1142;-72
2023/06/27 00:40:29;;;;;;;;;;;;;;;16.86;67.33;101912.75;5008604;28;1493;-72
2023/06/27 00:42:55;;;;;;;;;;;;;;;16.86;67.33;101913.59;5000677;28;1289;-73
2023/06/27 00:45:22;;;;;;;;;;;;;;;16.86;67.43;101902.25;5006564;28;1296;-73
2023/06/27 00:47:48;;;;;;;;;;;;;;;16.86;67.07;101908.34;5008923;28;1300;-73
2023/06/27 00:50:13;;;;;;;;;;;;;;;16.86;67.35;101908.34;5003557;28;1216;-73
2023/06/27 00:52:39;;;;;;;;;;;;;;;16.85;67.37;101911.91;5003728;28;1914;-72
2023/06/27 00:55:06;;;;;;;;;;;;;;;16.87;67.97;101901.31;5001592;28;1209;-73
2023/06/27 00:57:31;;;;;;;;;;;;;;;16.86;67.84;101905.72;5007707;28;1519;-73
2023/06/27 00:59:56;;;;;;;;;;;;;;;16.85;68.51;101906.66;5002699;28;1291;-73
2023/06/27 01:02:24;;;;;;;;;;;;;;;16.85;67.98;101906.66;5003372;28;1460;-72
2023/06/27 01:04:50;;;;;;;;;;;;;;;16.83;68.42;101913.84;4998669;28;1301;-72
2023/06/27 01:07:22;;;;;;;;;;;;;;;16.83;68.88;101911.25;5001355;28;1262;-72
2023/06/27 01:09:51;;;;;;;;;;;;;;;16.84;68.83;101909.44;5005261;28;1350;-73
2023/06/27 01:12:23;;;;;;;;;;;;;;;16.84;69.26;101898.97;5008446;28;1969;-73
2023/06/27 01:14:49;;;;;;;;;;;;;;;16.86;69.50;101897.88;5002155;28;1232;-73
2023/06/27 01:17:16;;;;;;;;;;;;;;;16.86;69.42;101897.88;5001153;28;1382;-73
2023/06/27 01:19:44;;;;;;;;;;;;;;;16.84;69.29;101910.25;5003780;28;1469;-74
2023/06/27 01:22:12;;;;;;;;;;;;;;;16.84;69.63;101904.19;5005282;28;1727;-74
2023/06/27 01:24:38;;;;;;;;;;;;;;;16.81;69.25;101905.31;5006584;28;1263;-73
2023/06/27 01:27:04;;;;;;;;;;;;;;;16.78;69.57;101900.34;5003373;28;1168;-73
2023/06/27 01:29:29;;;;;;;;;;;;;;;16.76;69.96;101897.03;5007437;28;1118;-73
2023/06/27 01:32:13;;;;;;;;;;;;;;;16.75;69.90;101895.41;5008338;28;1894;-73
2023/06/27 01:34:47;;;;;;;;;;;;;;;16.72;69.97;101900.91;5003978;28;1387;-73
2023/06/27 01:37:19;;;;;;;;;;;;;;;16.71;70.42;101900.09;5006161;28;1062;-73
2023/06/27 01:39:51;;;;;;;;;;;;;;;16.69;70.31;101902.00;5009728;28;1185;-73
2023/06/27 01:42:23;;;;;;;;;;;;;;;16.70;70.10;101902.81;5008270;28;1224;-73
2023/06/27 01:44:49;;;;;;;;;;;;;;;16.67;70.26;101903.06;5003541;28;1964;-73
2023/06/27 01:47:15;;;;;;;;;;;;;;;16.63;70.26;101896.44;5006583;28;1265;-73
2023/06/27 01:49:41;;;;;;;;;;;;;;;16.62;70.29;101894.81;5007087;28;1103;-74
2023/06/27 01:52:08;;;;;;;;;;;;;;;16.58;70.24;101893.44;5004918;28;1992;-73
2023/06/27 01:54:33;;;;;;;;;;;;;;;16.56;70.24;101890.94;4998642;28;1643;-73
2023/06/27 01:56:59;;;;;;;;;;;;;;;16.53;70.49;101885.19;4996848;28;1280;-74
2023/06/27 01:59:24;;;;;;;;;;;;;;;16.50;70.75;101886.25;5004094;28;1229;-73
2023/06/27 02:01:49;;;;;;;;;;;;;;;16.48;70.27;101887.38;5005518;28;1326;-73
2023/06/27 02:04:14;;;;;;;;;;;;;;;16.43;70.62;101880.75;4999148;28;1307;-73
2023/06/27 02:06:39;;;;;;;;;;;;;;;16.40;70.87;101881.03;5003250;28;1268;-74
2023/06/27 02:09:05;;;;;;;;;;;;;;;16.39;71.14;101879.38;5004387;28;1263;-73
2023/06/27 02:11:30;;;;;;;;;;;;;;;16.37;71.33;101885.72;5006373;28;1965;-73
2023/06/27 02:13:55;;;;;;;;;;;;;;;16.34;71.19;101884.19;5009153;28;1285;-73
2023/06/27 02:16:20;;;;;;;;;;;;;;;16.33;71.50;101885.16;5007177;28;1260;-74
2023/06/27 02:18:45;;;;;;;;;;;;;;;16.30;71.23;101890.69;5007102;28;1441;-73
2023/06/27 02:21:11;;;;;;;;;;;;;;;16.27;71.78;101885.69;5004200;28;1483;-73
2023/06/27 02:23:36;;;;;;;;;;;;;;;16.25;71.63;101877.16;5001726;28;1182;-73
2023/06/27 02:26:02;;;;;;;;;;;;;;;16.19;71.57;101881.16;5002832;28;1218;-73
2023/06/27 02:28:27;;;;;;;;;;;;;;;16.16;72.42;101883.19;5008567;28;1213;-73
2023/06/27 02:30:53;;;;;;;;;;;;;;;16.15;72.14;101881.56;5014799;28;1996;-73
2023/06/27 02:33:18;;;;;;;;;;;;;;;16.12;72.25;101871.38;5001789;28;1309;-74
2023/06/27 02:35:43;;;;;;;;;;;;;;;16.09;72.72;101871.63;5003526;28;1444;-73
2023/06/27 02:38:08;;;;;;;;;;;;;;;16.07;72.91;101873.56;5003251;28;1683;-73
2023/06/27 02:40:33;;;;;;;;;;;;;;;16.03;72.83;101869.56;5005396;28;1359;-73
2023/06/27 02:42:58;;;;;;;;;;;;;;;16.01;72.99;101868.88;5001646;28;1135;-75
2023/06/27 02:45:24;;;;;;;;;;;;;;;15.99;73.43;101862.94;5000766;28;1172;-73
2023/06/27 02:47:49;;;;;;;;;;;;;;;15.98;73.35;101866.50;5000988;28;1481;-73
2023/06/27 02:50:14;;;;;;;;;;;;;;;15.97;73.17;101873.53;5005132;28;1300;-73
2023/06/27 02:52:40;;;;;;;;;;;;;;;15.96;73.08;101865.81;5000729;28;1926;-75
2023/06/27 02:55:05;;;;;;;;;;;;;;;15.96;73.31;101860.59;5003583;28;1610;-73
2023/06/27 02:57:30;;;;;;;;;;;;;;;15.92;73.54;101866.09;4994435;28;2011;-73
2023/06/27 02:59:55;;;;;;;;;;;;;;;15.90;73.84;101867.19;5005571;28;1394;-73
2023/06/27 03:02:21;;;;;;;;;;;;;;;15.88;73.38;101863.88;4999889;28;1325;-73
2023/06/27 03:04:47;;;;;;;;;;;;;;;15.85;73.83;101864.97;5003632;28;1467;-74
2023/06/27 03:07:12;;;;;;;;;;;;;;;15.84;73.88;101865.94;4996485;28;1443;-73
2023/06/27 03:09:38;;;;;;;;;;;;;;;15.83;74.86;101872.13;5007240;28;1236;-73
2023/06/27 03:12:03;;;;;;;;;;;;;;;15.82;74.49;101880.91;5003527;28;1934;-74
2023/06/27 03:14:29;;;;;;;;;;;;;;;15.79;74.09;101881.19;5004607;28;2363;-73
2023/06/27 03:16:54;;;;;;;;;;;;;;;15.78;74.26;101876.94;5005252;28;1223;-73
2023/06/27 03:19:19;;;;;;;;;;;;;;;15.80;74.64;101877.63;5001770;28;1406;-74
2023/06/27 03:21:45;;;;;;;;;;;;;;;15.81;74.55;101871.44;5004581;28;1391;-73
2023/06/27 03:24:10;;;;;;;;;;;;;;;15.87;74.28;101872.69;5001756;28;1078;-73
2023/06/27 03:26:35;;;;;;;;;;;;;;;15.82;74.76;101874.88;5005929;28;1327;-75
2023/06/27 03:29:00;;;;;;;;;;;;;;;15.75;74.94;101871.97;5004744;28;1561;-73
2023/06/27 03:31:25;;;;;;;;;;;;;;;15.73;74.74;101883.53;5006200;28;1898;-73
2023/06/27 03:33:52;;;;;;;;;;;;;;;15.72;74.78;101885.31;5009613;28;1296;-73
2023/06/27 03:36:17;;;;;;;;;;;;;;;15.70;75.17;101887.22;5006930;28;1143;-73
2023/06/27 03:38:45;;;;;;;;;;;;;;;15.68;74.93;101891.75;5004430;28;1632;-73
2023/06/27 03:41:10;;;;;;;;;;;;;;;15.67;75.23;101887.50;5006683;28;1058;-73
2023/06/27 03:43:35;;;;;;;;;;;;;;;15.66;75.77;101885.84;5009724;28;1119;-73
2023/06/27 03:46:00;;;;;;;;;;;;;;;15.65;75.14;101884.16;5002619;28;1352;-73
2023/06/27 03:48:25;;;;;;;;;;;;;;;15.65;75.66;101889.41;5007109;28;1311;-73
2023/06/27 03:50:51;;;;;;;;;;;;;;;15.66;75.69;101889.28;5003782;28;1376;-73
2023/06/27 03:53:16;;;;;;;;;;;;;;;15.68;76.07;101888.31;5008091;28;1927;-74
2023/06/27 03:55:41;;;;;;;;;;;;;;;15.67;75.82;101895.34;5005827;28;1301;-75
2023/06/27 03:58:07;;;;;;;;;;;;;;;15.66;75.96;101886.69;5005856;28;1617;-73
2023/06/27 04:00:32;;;;;;;;;;;;;;;15.68;76.03;101886.53;5010325;28;1262;-73
2023/06/27 04:02:57;;;;;;;;;;;;;;;15.67;76.43;101879.66;5009405;28;1301;-73
2023/06/27 04:05:22;;;;;;;;;;;;;;;15.70;76.25;101892.44;5006276;28;1370;-73
2023/06/27 04:07:48;;;;;;;;;;;;;;;15.69;76.66;101880.34;5008553;28;1531;-73
2023/06/27 04:10:13;;;;;;;;;;;;;;;15.70;76.23;101889.84;5008357;28;1314;-73
2023/06/27 04:12:38;;;;;;;;;;;;;;;15.69;76.79;101887.34;5002845;28;1894;-73
2023/06/27 04:15:04;;;;;;;;;;;;;;;15.70;76.89;101887.22;5007288;28;1388;-74
2023/06/27 04:17:29;;;;;;;;;;;;;;;15.73;76.63;101886.16;4999803;28;1313;-73
2023/06/27 04:19:54;;;;;;;;;;;;;;;15.73;76.70;101886.97;5003662;28;1822;-73
2023/06/27 04:22:19;;;;;;;;;;;;;;;15.73;77.32;101871.28;5003973;28;1253;-74
2023/06/27 04:24:44;;;;;;;;;;;;;;;15.75;77.46;101882.41;5009540;28;1099;-73
2023/06/27 04:27:09;;;;;;;;;;;;;;;15.77;77.27;101887.50;5004440;28;1198;-74
2023/06/27 04:29:35;;;;;;;;;;;;;;;15.77;78.22;101883.13;4997752;28;1535;-73
2023/06/27 04:32:00;;;;;;;;;;;;;;;15.78;77.47;101884.78;5005139;28;1894;-74
2023/06/27 04:34:26;;;;;;;;;;;;;;;15.78;77.42;101879.56;5003114;28;1345;-73
2023/06/27 04:36:51;;;;;;;;;;;;;;;15.80;77.16;101882.84;5007252;28;1202;-73
2023/06/27 04:39:16;;;;;;;;;;;;;;;15.80;77.34;101885.47;5002659;28;1593;-74
2023/06/27 04:41:41;;;;;;;;;;;;;;;15.78;77.34;101890.03;5007908;28;1157;-74
2023/06/27 04:44:06;;;;;;;;;;;;;;;15.77;77.67;101888.38;5002848;28;1382;-73
2023/06/27 04:46:32;;;;;;;;;;;;;;;15.75;77.36;101890.28;5005362;28;1314;-73
2023/06/27 04:48:58;;;;;;;;;;;;;;;15.71;77.96;101893.28;4999131;28;1240;-74
2023/06/27 04:51:24;;;;;;;;;;;;;;;15.70;77.86;101892.44;5003796;28;1997;-73
2023/06/27 04:53:49;;;;;;;;;;;;;;;15.69;77.86;101896.03;5005921;28;1256;-74
2023/06/27 04:56:14;;;;;;;;;;;;;;;15.69;78.37;101905.66;5003812;28;1497;-74
2023/06/27 04:58:40;;;;;;;;;;;;;;;15.70;78.62;101896.84;5007974;28;1338;-73
2023/06/27 05:01:05;;;;;;;;;;;;;;;15.71;78.24;101899.34;5006889;28;1236;-74
2023/06/27 05:03:30;;;;;;;;;;;;;;;15.70;78.72;101889.84;5008092;28;1235;-73
2023/06/27 05:05:56;;;;;;;;;;;;;;;15.69;78.93;101896.03;5002412;28;1357;-73
2023/06/27 05:08:21;;;;;;;;;;;;;;;15.69;78.65;101901.25;5010371;28;1221;-74
2023/06/27 05:10:46;;;;;;;;;;;;;;;15.68;78.67;101893.56;5009253;28;1293;-74
2023/06/27 05:13:12;;;;;;;;;;;;;;;15.70;78.74;101908.16;5002519;28;1894;-74
2023/06/27 05:15:37;;;;;;;;;;;;;;;15.72;78.89;101906.25;5008341;28;1299;-74
2023/06/27 05:18:08;;;;;;;;;;;;;;;15.73;78.65;101902.66;5001566;28;1228;-74
2023/06/27 05:20:34;;;;;;;;;;;;;;;15.71;79.28;101895.88;5003613;28;1335;-73
2023/06/27 05:23:01;;;;;;;;;;;;;;;15.70;78.98;101902.91;5000603;28;1489;-73
2023/06/27 05:25:26;;;;;;;;;;;;;;;15.76;79.09;101901.56;5004978;28;1456;-74
2023/06/27 05:27:51;;;;;;;;;;;;;;;15.81;79.38;101905.44;5007653;28;1162;-73
2023/06/27 05:30:16;;;;;;;;;;;;;;;15.86;79.35;101892.78;5007333;28;1090;-74
2023/06/27 05:32:42;;;;;;;;;;;;;;;15.87;79.42;101899.66;5003815;28;1981;-74
2023/06/27 05:35:07;;;;;;;;;;;;;;;15.88;78.95;101900.50;4998321;28;1612;-74
2023/06/27 05:37:32;;;;;;;;;;;;;;;15.92;79.58;101894.03;5005831;28;1147;-74
2023/06/27 05:39:57;;;;;;;;;;;;;;;15.96;79.43;101897.22;5003361;28;1260;-75
2023/06/27 05:42:23;;;;;;;;;;;;;;;16.00;78.97;101901.22;4999319;28;1327;-74
2023/06/27 05:44:48;;;;;;;;;;;;;;;16.01;79.07;101895.03;4998025;28;1198;-74
2023/06/27 05:47:13;;;;;;;;;;;;;;;16.08;79.84;101909.22;4999465;28;1567;-75
2023/06/27 05:49:38;;;;;;;;;;;;;;;16.10;80.64;101899.44;5007165;28;1133;-75
2023/06/27 05:52:04;;;;;;;;;;;;;;;16.16;80.17;101904.13;5003796;28;1898;-75
2023/06/27 05:54:29;;;;;;;;;;;;;;;16.20;79.54;101895.88;5001459;28;1609;-74
2023/06/27 05:56:54;;;;;;;;;;;;;;;16.24;79.64;101896.47;5001460;28;1804;-74
2023/06/27 05:59:19;;;;;;;;;;;;;;;16.30;79.92;101900.31;5004045;28;1225;-74
2023/06/27 06:01:45;;;;;;;;;;;;;;;16.35;80.41;101906.81;5002395;28;1262;-74
2023/06/27 06:04:10;;;;;;;;;;;;;;;16.41;80.72;101898.41;5002045;28;1287;-74
2023/06/27 06:06:38;;;;;;;;;;;;;;;16.46;81.68;101906.69;5004050;28;1363;-74
2023/06/27 06:09:03;;;;;;;;;;;;;;;16.56;81.04;101911.06;5004296;28;1201;-74
2023/06/27 06:11:28;;;;;;;;;;;;;;;16.67;80.76;101908.31;5003002;28;1894;-74
2023/06/27 06:13:54;;;;;;;;;;;;;;;16.76;80.20;101902.28;5002868;28;1292;-75
2023/06/27 06:16:19;;;;;;;;;;;;;;;16.81;80.39;101907.13;5004560;28;1276;-73
2023/06/27 06:18:44;;;;;;;;;;;;;;;16.88;81.06;101905.59;5002693;28;1374;-74
2023/06/27 06:21:12;;;;;;;;;;;;;;;16.97;80.53;101908.19;5000001;28;1279;-73
2023/06/27 06:23:37;;;;;;;;;;;;;;;17.05;80.77;101911.91;5001981;28;1245;-74
2023/06/27 06:26:02;;;;;;;;;;;;;;;17.11;80.46;101911.34;5000747;28;1511;-74
2023/06/27 06:28:27;;;;;;;;;;;;;;;17.19;80.69;101908.81;5001399;28;1328;-74
2023/06/27 06:30:53;;;;;;;;;;;;;;;17.29;80.54;101916.69;4997192;28;1341;-74
2023/06/27 06:33:18;;;;;;;;;;;;;;;17.35;80.14;101916.94;5003589;28;1988;-74
2023/06/27 06:35:43;;;;;;;;;;;;;;;17.46;81.20;101929.03;5003543;28;1192;-74
2023/06/27 06:38:08;;;;;;;;;;;;;;;17.59;80.31;101926.91;5001842;28;1150;-74
2023/06/27 06:40:33;;;;;;;;;;;;;;;17.69;80.31;101926.88;5023708;28;1425;-74
2023/06/27 06:42:59;;;;;;;;;;;;;;;17.80;79.92;101929.34;5000530;28;1214;-75
2023/06/27 06:45:24;;;;;;;;;;;;;;;17.91;79.46;101930.97;5007990;28;1522;-74
2023/06/27 06:47:49;;;;;;;;;;;;;;;17.97;77.74;101936.44;5000541;28;1204;-74
2023/06/27 06:50:14;;;;;;;;;;;;;;;18.03;75.80;101935.88;5002902;28;1534;-74
2023/06/27 06:52:40;;;;;;;;;;;;;;;18.05;76.33;101939.16;5006887;28;1969;-74
2023/06/27 06:55:05;;;;;;;;;;;;;;;18.13;76.38;101929.75;5004164;28;1102;-75
2023/06/27 06:57:30;;;;;;;;;;;;;;;18.21;75.35;101938.53;5002111;28;1342;-74
2023/06/27 06:59:55;;;;;;;;;;;;;;;18.32;75.32;101940.13;5000601;28;1256;-74
2023/06/27 07:02:21;;;;;;;;;;;;;;;18.42;73.30;101935.63;5001097;28;1265;-74
2023/06/27 07:04:46;;;;;;;;;;;;;;;18.51;73.65;101945.22;5001901;28;1225;-74
2023/06/27 07:07:11;;;;;;;;;;;;;;;18.65;72.63;101945.69;5006586;28;1291;-75
2023/06/27 07:09:36;;;;;;;;;;;;;;;18.61;71.60;101952.22;5010983;28;1331;-74
2023/06/27 07:12:02;;;;;;;;;;;;;;;18.66;71.51;101948.16;5005253;28;1902;-74
2023/06/27 07:14:27;;;;;;;;;;;;;;;18.77;71.72;101939.25;5006214;28;1291;-74
2023/06/27 07:16:52;;;;;;;;;;;;;;;18.88;71.02;101943.47;5009332;28;1209;-75
2023/06/27 07:19:17;;;;;;;;;;;;;;;19.01;70.65;101936.81;5008651;28;1459;-75
2023/06/27 07:21:43;;;;;;;;;;;;;;;19.09;69.45;101943.91;5006520;28;1291;-75
2023/06/27 07:24:08;;;;;;;;;;;;;;;19.18;69.50;101936.94;5006144;28;1201;-74
2023/06/27 07:26:34;;;;;;;;;;;;;;;19.14;66.35;101930.31;5004156;28;1082;-75
2023/06/27 07:28:59;;;;;;;;;;;;;;;19.19;67.22;101933.31;5005841;28;1145;-75
2023/06/27 07:31:24;;;;;;;;;;;;;;;19.26;66.92;101939.59;4998524;28;1926;-75
2023/06/27 07:33:50;;;;;;;;;;;;;;;19.27;67.13;101933.38;5005552;28;1720;-75
2023/06/27 07:36:15;;;;;;;;;;;;;;;19.33;67.04;101930.13;5004283;28;1341;-75
2023/06/27 07:38:40;;;;;;;;;;;;;;;19.44;65.91;101937.75;5006403;28;1296;-75
2023/06/27 07:41:05;;;;;;;;;;;;;;;19.46;66.23;101937.59;5006052;28;1119;-75
2023/06/27 07:43:31;;;;;;;;;;;;;;;19.55;66.36;101934.00;4999915;28;2072;-74
2023/06/27 07:45:56;;;;;;;;;;;;;;;19.57;64.53;101930.25;5006462;28;1098;-75
2023/06/27 07:48:21;;;;;;;;;;;;;;;19.66;65.19;101931.13;5002125;28;1230;-75
2023/06/27 07:50:46;;;;;;;;;;;;;;;19.70;65.50;101926.38;5006793;28;1699;-74
2023/06/27 07:53:11;;;;;;;;;;;;;;;19.87;65.51;101930.72;5006231;28;1898;-74
2023/06/27 07:55:37;;;;;;;;;;;;;;;19.91;63.11;101933.88;5008321;28;1834;-74
2023/06/27 07:58:02;;;;;;;;;;;;;;;19.92;63.46;101931.09;5003196;28;1210;-74
2023/06/27 08:00:28;;;;;;;;;;;;;;;19.93;61.23;101938.00;5004609;28;1818;-74
2023/06/27 08:02:53;;;;;;;;;;;;;;;19.89;62.25;101926.13;5007566;28;1256;-74
2023/06/27 08:05:18;;;;;;;;;;;;;;;19.89;61.69;101923.50;5008104;28;1312;-74
2023/06/27 08:07:44;;;;;;;;;;;;;;;19.99;62.33;101921.56;5009148;28;1025;-74
2023/06/27 08:10:11;;;;;;;;;;;;;;;20.05;62.17;101920.91;5004702;28;1830;-74
2023/06/27 08:12:36;;;;;;;;;;;;;;;20.19;62.17;101921.28;5007909;28;1898;-74
2023/06/27 08:15:02;;;;;;;;;;;;;;;20.32;60.38;101919.00;5002408;28;1294;-75
2023/06/27 08:17:27;;;;;;;;;;;;;;;20.35;60.69;101929.19;5008127;28;1553;-75
2023/06/27 08:19:52;;;;;;;;;;;;;;;20.54;58.44;101925.50;5001286;28;1794;-74
2023/06/27 08:22:18;;;;;;;;;;;;;;;20.28;58.80;101925.56;5019131;28;1397;-74
2023/06/27 08:24:43;;;;;;;;;;;;;;;20.28;58.52;101925.56;4998421;28;1351;-75
2023/06/27 08:27:09;;;;;;;;;;;;;;;20.26;59.11;101922.28;5000162;28;1226;-74
2023/06/27 08:29:34;;;;;;;;;;;;;;;20.43;58.00;101927.41;4999528;28;1288;-75
2023/06/27 08:31:59;;;;;;;;;;;;;;;20.30;58.61;101928.84;4992940;28;1907;-75
2023/06/27 08:34:26;;;;;;;;;;;;;;;20.27;57.32;101923.94;4995329;28;1206;-75
2023/06/27 08:36:51;;;;;;;;;;;;;;;20.24;57.95;101924.25;5004266;28;1060;-74
2023/06/27 08:39:16;;;;;;;;;;;;;;;20.25;58.18;101920.66;5003441;28;1331;-76
2023/06/27 08:41:41;;;;;;;;;;;;;;;20.33;57.77;101918.00;5006189;28;1192;-74
2023/06/27 08:44:07;;;;;;;;;;;;;;;20.35;56.79;101916.03;5005377;28;1300;-74
2023/06/27 08:46:32;;;;;;;;;;;;;;;20.31;57.19;101925.25;5000702;28;1296;-74
2023/06/27 08:49:01;;;;;;;;;;;;;;;20.37;56.10;101929.88;5002182;28;1275;-74
2023/06/27 08:51:28;;;;;;;;;;;;;;;20.43;57.09;101923.97;5004460;28;1961;-74
2023/06/27 08:53:56;;;;;;;;;;;;;;;20.51;56.56;101921.34;4999725;28;1387;-74
2023/06/27 08:56:21;;;;;;;;;;;;;;;20.71;56.29;101926.31;5003717;28;1053;-75
2023/06/27 08:58:46;;;;;;;;;;;;;;;20.60;55.53;101919.56;5003848;28;1418;-74
2023/06/27 09:01:12;;;;;;;;;;;;;;;20.46;56.19;101923.66;5005631;28;1338;-74
2023/06/27 09:03:37;;;;;;;;;;;;;;;20.49;56.52;101917.25;5005964;28;2008;-73
2023/06/27 09:06:05;;;;;;;;;;;;;;;20.51;56.18;101921.34;5007706;28;1328;-74
2023/06/27 09:08:31;;;;;;;;;;;;;;;20.55;56.09;101922.69;5006456;28;1283;-74
2023/06/27 09:10:57;;;;;;;;;;;;;;;20.60;56.02;101917.75;5007492;28;1068;-74
2023/06/27 09:13:22;;;;;;;;;;;;;;;20.63;55.31;101920.03;5006706;28;1951;-75
2023/06/27 09:15:47;;;;;;;;;;;;;;;20.51;54.22;101921.34;5005661;28;1277;-74
2023/06/27 09:18:13;;;;;;;;;;;;;;;20.44;55.19;101933.50;5003735;28;1361;-76
2023/06/27 09:20:38;;;;;;;;;;;;;;;20.49;56.30;101933.06;5009435;28;1195;-75
2023/06/27 09:23:05;;;;;;;;;;;;;;;20.54;55.87;101926.31;4994675;28;1186;-76
2023/06/27 09:25:30;;;;;;;;;;;;;;;20.55;54.78;101935.84;4997366;28;1326;-73
2023/06/27 09:27:56;;;;;;;;;;;;;;;20.51;54.82;101937.16;5004654;28;991;-73
2023/06/27 09:30:21;;;;;;;;;;;;;;;20.55;53.90;101930.59;5007762;28;1178;-75
2023/06/27 09:32:54;;;;;;;;;;;;;;;20.37;54.96;101929.88;5005213;28;1965;-73
2023/06/27 09:35:20;;;;;;;;;;;;;;;20.36;55.51;101933.50;5004890;28;1316;-73
2023/06/27 09:37:45;;;;;;;;;;;;;;;20.44;55.70;101936.16;5003799;28;1354;-73
2023/06/27 09:40:18;;;;;;;;;;;;;;;20.53;55.25;101940.47;5008140;28;1193;-72
2023/06/27 09:42:49;;;;;;;;;;;;;;;20.61;54.88;101943.13;5002265;28;1246;-73
2023/06/27 09:45:14;;;;;;;;;;;;;;;20.60;52.58;101941.47;5001887;28;1385;-73
2023/06/27 09:47:40;;;;;;;;;;;;;;;20.52;53.86;101938.81;5004024;28;1607;-73
2023/06/27 09:50:06;;;;;;;;;;;;;;;20.58;53.07;101943.44;5002977;28;1264;-74
2023/06/27 09:52:31;;;;;;;;;;;;;;;20.50;53.53;101937.34;5007636;28;1906;-73
2023/06/27 09:54:57;;;;;;;;;;;;;;;20.49;53.56;101933.88;5001469;28;1220;-72
2023/06/27 09:57:24;;;;;;;;;;;;;;;20.43;54.00;101930.06;5007529;28;1464;-75
2023/06/27 09:59:49;;;;;;;;;;;;;;;20.61;51.65;101943.13;5003296;28;1406;-73
2023/06/27 10:02:15;;;;;;;;;;;;;;;20.39;53.42;101941.06;4999944;28;1774;-72
2023/06/27 10:04:40;;;;;;;;;;;;;;;20.50;51.67;101934.69;5003592;28;1358;-73
2023/06/27 10:07:07;;;;;;;;;;;;;;;20.38;52.69;101942.06;5007566;28;1376;-74
2023/06/27 10:09:41;;;;;;;;;;;;;;;20.44;52.62;101946.69;5004923;28;1433;-76
2023/06/27 10:12:07;;;;;;;;;;;;;;;20.47;52.64;101946.38;5002894;28;1957;-72
2023/06/27 10:14:33;;;;;;;;;;;;;;;20.54;52.70;101947.41;5003414;28;1320;-72
2023/06/27 10:17:00;;;;;;;;;;;;;;;20.58;54.22;101948.69;5004847;28;1351;-73
2023/06/27 10:19:25;;;;;;;;;;;;;;;20.70;54.19;101951.84;5000765;28;1172;-73
2023/06/27 10:21:50;;;;;;;;;;;;;;;20.81;54.54;101948.88;5003713;28;1656;-72
2023/06/27 10:24:16;;;;;;;;;;;;;;;20.89;54.23;101950.69;5006293;28;1250;-72
2023/06/27 10:26:48;;;;;;;;;;;;;;;20.92;53.93;101945.09;5004845;28;1040;-72
2023/06/27 10:29:14;;;;;;;;;;;;;;;21.08;53.48;101947.72;5001494;28;1287;-76
2023/06/27 10:31:42;;;;;;;;;;;;;;;21.13;53.88;101949.84;5005798;28;1967;-71
2023/06/27 10:34:08;;;;;;;;;;;;;;;21.23;53.98;101941.78;5004025;28;1086;-72
2023/06/27 10:36:49;;;;;;;;;;;;;;;21.41;53.43;101937.13;4998364;28;1399;-74
2023/06/27 10:39:41;;;;;;;;;;;;;;;21.34;52.53;101938.81;5011735;28;1330;-73
2023/06/27 10:42:16;;;;;;;;;;;;;;;21.37;51.97;101939.28;5003169;28;1194;-72
2023/06/27 10:45:04;;;;;;;;;;;;;;;21.20;51.33;101949.00;5009562;28;1413;-73
2023/06/27 10:47:38;;;;;;;;;;;;;;;21.08;49.30;101945.06;4995917;28;1300;-75
2023/06/27 10:50:25;;;;;;;;;;;;;;;20.93;50.07;101942.31;5008415;28;1331;-73
2023/06/27 10:53:01;;;;;;;;;;;;;;;20.98;49.89;101933.88;5009703;28;1906;-76
2023/06/27 10:55:27;;;;;;;;;;;;;;;20.96;50.62;101938.50;5007368;28;1189;-74
2023/06/27 10:58:02;;;;;;;;;;;;;;;20.98;51.03;101933.88;5008141;28;1094;-73
2023/06/27 11:00:29;;;;;;;;;;;;;;;20.98;49.65;101939.13;5007287;28;1837;-73
2023/06/27 11:02:56;;;;;;;;;;;;;;;21.17;51.02;101938.81;5012210;28;1257;-73
2023/06/27 11:05:40;;;;;;;;;;;;;;;21.35;50.87;101943.91;5003502;28;1091;-73
2023/06/27 11:08:08;;;;;;;;;;;;;;;21.38;48.90;101938.28;5010988;28;1314;-73
2023/06/27 11:10:34;;;;;;;;;;;;;;;21.37;49.57;101943.72;5009368;28;1112;-73
2023/06/27 11:13:16;;;;;;;;;;;;;;;21.43;49.89;101938.59;5010965;28;1894;-73
2023/06/27 11:15:44;;;;;;;;;;;;;;;21.43;50.38;101943.88;5011942;28;1432;-72
2023/06/27 11:18:11;;;;;;;;;;;;;;;21.55;50.44;101941.69;5005744;28;1339;-73
2023/06/27 11:20:37;;;;;;;;;;;;;;;21.69;50.55;101937.53;5011040;28;1620;-73
2023/06/27 11:23:03;;;;;;;;;;;;;;;21.98;49.11;101936.91;5005403;28;1327;-74
2023/06/27 11:25:28;;;;;;;;;;;;;;;21.83;49.42;101943.91;5004487;28;1508;-74
2023/06/27 11:27:56;;;;;;;;;;;;;;;21.92;48.86;101943.72;5003760;28;1020;-72
2023/06/27 11:30:24;;;;;;;;;;;;;;;21.84;47.24;101945.53;5007480;28;1001;-74
2023/06/27 11:32:54;;;;;;;;;;;;;;;21.69;47.80;101954.19;4999961;28;1975;-73
2023/06/27 11:35:19;;;;;;;;;;;;;;;21.69;48.21;101948.91;5001213;28;1006;-73
2023/06/27 11:37:44;;;;;;;;;;;;;;;21.68;48.70;101944.63;5006323;28;1528;-74
2023/06/27 11:40:15;;;;;;;;;;;;;;;21.64;49.07;101938.03;5007282;28;1266;-72
2023/06/27 11:42:40;;;;;;;;;;;;;;;21.84;48.20;101932.34;5008844;28;1287;-74
2023/06/27 11:45:10;;;;;;;;;;;;;;;21.91;46.90;101931.50;5001160;28;1295;-73
2023/06/27 11:47:35;;;;;;;;;;;;;;;21.85;47.79;101939.25;5003605;28;1185;-75
2023/06/27 11:50:04;;;;;;;;;;;;;;;21.86;47.83;101933.00;5006496;28;1016;-73
2023/06/27 11:52:29;;;;;;;;;;;;;;;21.73;45.94;101936.19;5008863;28;2262;-75
2023/06/27 11:54:55;;;;;;;;;;;;;;;21.71;47.49;101939.00;5000935;28;1531;-73
2023/06/27 11:57:21;;;;;;;;;;;;;;;21.82;47.12;101948.38;5010453;28;1508;-74
2023/06/27 11:59:50;;;;;;;;;;;;;;;21.80;48.45;101949.53;5005843;28;1565;-72
2023/06/27 12:02:15;;;;;;;;;;;;;;;21.68;45.99;101942.00;5007706;28;1313;-74
2023/06/27 12:04:42;;;;;;;;;;;;;;;21.73;46.36;101934.38;5003267;28;1550;-73
2023/06/27 12:07:20;;;;;;;;;;;;;;;21.83;47.05;101934.16;5003013;28;1371;-73
2023/06/27 12:09:45;;;;;;;;;;;;;;;21.83;47.40;101934.16;5006009;28;2016;-72
2023/06/27 12:12:10;;;;;;;;;;;;;;;21.99;47.51;101935.91;5002041;28;1906;-74
2023/06/27 12:14:36;;;;;;;;;;;;;;;22.19;47.07;101926.59;5009235;28;1297;-73
2023/06/27 12:17:04;;;;;;;;;;;;;;;22.23;47.70;101930.50;5005713;28;1347;-74
2023/06/27 12:19:29;;;;;;;;;;;;;;;22.14;46.51;101931.56;5007114;28;1122;-73
2023/06/27 12:21:54;;;;;;;;;;;;;;;22.02;46.50;101927.63;5003843;28;1070;-73
2023/06/27 12:24:20;;;;;;;;;;;;;;;22.06;46.67;101931.56;5005425;28;1051;-74
2023/06/27 12:26:46;;;;;;;;;;;;;;;22.02;48.04;101922.34;5004752;28;1299;-73
2023/06/27 12:29:11;;;;;;;;;;;;;;;22.03;47.80;101902.88;5009856;28;1495;-74
2023/06/27 12:31:37;;;;;;;;;;;;;;;22.09;48.16;101907.47;5003260;28;1899;-72
2023/06/27 12:34:02;;;;;;;;;;;;;;;22.16;47.22;101911.06;5006220;28;1286;-74
2023/06/27 12:36:27;;;;;;;;;;;;;;;22.12;43.63;101901.84;4997923;28;1295;-74
2023/06/27 12:38:53;;;;;;;;;;;;;;;22.10;46.23;101905.66;5009537;28;1396;-72
2023/06/27 12:41:19;;;;;;;;;;;;;;;22.17;45.37;101898.69;5012745;28;1229;-72
2023/06/27 12:43:45;;;;;;;;;;;;;;;22.21;45.05;101892.88;5002747;28;1097;-73